createdAt,value
2023-01-24T00:01:42.924Z,67.20
2023-01-24T00:04:12.223Z,67.20
2023-01-24T00:06:40.137Z,67.20
2023-01-24T00:09:08.004Z,67.20
2023-01-24T00:11:36.000Z,67.10
2023-01-24T00:14:03.899Z,67.10
2023-01-24T00:16:31.741Z,67.20
2023-01-24T00:18:59.643Z,67.20
2023-01-24T00:21:28.840Z,67.10
2023-01-24T00:23:56.968Z,67.20
2023-01-24T00:26:26.668Z,67.10
2023-01-24T00:28:55.121Z,67.20
2023-01-24T00:31:25.186Z,67.10
2023-01-24T00:33:53.141Z,67.10
2023-01-24T00:36:21.155Z,67.00
2023-01-24T00:38:50.401Z,67.10
2023-01-24T00:41:18.245Z,67.10
2023-01-24T00:43:46.224Z,67.00
2023-01-24T00:46:14.375Z,67.00
2023-01-24T00:48:42.226Z,67.10
2023-01-24T00:51:10.208Z,66.90
2023-01-24T00:53:38.499Z,66.90
2023-01-24T00:56:08.974Z,67.00
2023-01-24T00:58:36.840Z,67.00
2023-01-24T01:01:05.343Z,67.00
2023-01-24T01:03:33.563Z,67.00
2023-01-24T01:06:02.537Z,67.10
2023-01-24T01:08:30.575Z,67.00
2023-01-24T01:10:58.688Z,66.90
2023-01-24T01:13:28.817Z,66.90
2023-01-24T01:16:03.021Z,66.90
2023-01-24T01:18:31.079Z,66.90
2023-01-24T01:20:58.955Z,66.90
2023-01-24T01:23:27.115Z,66.90
2023-01-24T01:25:55.180Z,66.80
2023-01-24T01:28:23.040Z,66.80
2023-01-24T01:30:54.172Z,66.80
2023-01-24T01:33:22.620Z,66.70
2023-01-24T01:35:51.966Z,66.80
2023-01-24T01:38:20.231Z,66.80
2023-01-24T01:40:48.383Z,66.70
2023-01-24T01:43:17.970Z,66.80
2023-01-24T01:45:47.277Z,66.80
2023-01-24T01:48:25.715Z,66.70
2023-01-24T01:51:00.305Z,66.70
2023-01-24T01:53:33.843Z,66.70
2023-01-24T01:56:06.167Z,66.80
2023-01-24T01:58:35.076Z,66.70
2023-01-24T02:01:04.054Z,66.70
2023-01-24T02:03:41.696Z,66.70
2023-01-24T02:06:21.578Z,66.70
2023-01-24T02:08:51.504Z,66.60
2023-01-24T02:11:37.431Z,66.60
2023-01-24T02:14:23.066Z,66.50
2023-01-24T02:16:50.927Z,66.60
2023-01-24T02:19:49.399Z,66.60
2023-01-24T02:22:24.463Z,66.60
2023-01-24T02:25:03.308Z,66.60
2023-01-24T02:27:32.588Z,66.60
2023-01-24T02:30:01.116Z,66.60
2023-01-24T02:32:29.090Z,66.50
2023-01-24T02:34:57.088Z,66.60
2023-01-24T02:37:27.069Z,66.50
2023-01-24T02:39:58.897Z,66.60
2023-01-24T02:42:32.633Z,66.60
2023-01-24T02:45:09.116Z,66.50
2023-01-24T02:47:42.205Z,66.50
2023-01-24T02:50:11.265Z,66.50
2023-01-24T02:52:56.679Z,66.40
2023-01-24T02:55:25.904Z,66.40
2023-01-24T02:58:08.481Z,66.40
2023-01-24T03:00:41.618Z,66.40
2023-01-24T03:03:11.902Z,66.40
2023-01-24T03:05:57.541Z,66.40
2023-01-24T03:08:33.092Z,66.40
2023-01-24T03:11:04.167Z,66.30
2023-01-24T03:13:50.559Z,66.30
2023-01-24T03:16:38.195Z,66.40
2023-01-24T03:19:23.903Z,66.40
2023-01-24T03:22:10.091Z,66.40
2023-01-24T03:24:55.834Z,66.50
2023-01-24T03:27:41.139Z,66.40
2023-01-24T03:30:29.066Z,67.00
2023-01-24T03:33:20.716Z,66.30
2023-01-24T03:35:55.259Z,66.30
2023-01-24T03:38:44.463Z,66.30
2023-01-24T03:41:12.696Z,66.30
2023-01-24T03:43:42.415Z,66.30
2023-01-24T03:46:11.470Z,66.30
2023-01-24T03:49:00.990Z,66.30
2023-01-24T03:51:52.092Z,66.30
2023-01-24T03:54:20.038Z,66.30
2023-01-24T03:57:03.167Z,66.30
2023-01-24T03:59:31.150Z,66.40
2023-01-24T04:01:59.388Z,66.40
2023-01-24T04:04:52.894Z,66.30
2023-01-24T04:07:26.977Z,66.30
2023-01-24T04:10:00.270Z,66.30
2023-01-24T04:12:29.812Z,66.20
2023-01-24T04:14:57.821Z,66.20
2023-01-24T04:17:25.924Z,66.20
2023-01-24T04:19:56.242Z,66.10
2023-01-24T04:22:25.353Z,66.10
2023-01-24T04:24:55.640Z,65.90
2023-01-24T04:27:26.416Z,65.80
2023-01-24T04:30:05.179Z,65.70
2023-01-24T04:32:35.075Z,65.40
2023-01-24T04:35:11.420Z,65.30
2023-01-24T04:37:54.246Z,65.20
2023-01-24T04:40:36.948Z,65.00
2023-01-24T04:43:04.821Z,64.80
2023-01-24T04:45:34.521Z,64.70
2023-01-24T04:48:03.467Z,64.60
2023-01-24T04:50:33.678Z,64.50
2023-01-24T04:53:02.006Z,64.40
2023-01-24T04:55:30.420Z,64.30
2023-01-24T04:57:58.920Z,64.20
2023-01-24T05:00:27.434Z,64.00
2023-01-24T05:02:55.903Z,63.90
2023-01-24T05:05:25.525Z,63.80
2023-01-24T05:07:56.438Z,63.70
2023-01-24T05:10:25.183Z,63.50
2023-01-24T05:12:54.564Z,63.40
2023-01-24T05:15:24.795Z,63.20
2023-01-24T05:17:53.783Z,63.50
2023-01-24T05:20:24.871Z,64.00
2023-01-24T05:22:53.180Z,64.40
2023-01-24T05:25:24.285Z,64.50
2023-01-24T05:27:53.425Z,64.60
2023-01-24T05:30:22.860Z,64.70
2023-01-24T05:32:52.900Z,65.50
2023-01-24T05:35:22.263Z,64.80
2023-01-24T05:37:51.740Z,64.80
2023-01-24T05:40:21.113Z,64.90
2023-01-24T05:42:50.395Z,64.90
2023-01-24T05:45:18.714Z,65.00
2023-01-24T05:47:46.821Z,65.00
2023-01-24T05:50:17.936Z,65.10
2023-01-24T05:52:46.876Z,65.10
2023-01-24T05:55:14.798Z,65.10
2023-01-24T05:57:48.022Z,65.00
2023-01-24T06:00:20.812Z,65.10
2023-01-24T06:03:09.124Z,65.10
2023-01-24T06:05:37.114Z,65.10
2023-01-24T06:08:05.653Z,65.10
2023-01-24T06:10:34.671Z,65.20
2023-01-24T06:13:05.789Z,65.30
2023-01-24T06:15:35.394Z,65.30
2023-01-24T06:18:05.073Z,65.30
2023-01-24T06:20:33.745Z,65.30
2023-01-24T06:23:05.763Z,65.30
2023-01-24T06:25:37.163Z,65.30
2023-01-24T06:28:05.620Z,65.30
2023-01-24T06:30:35.437Z,65.30
2023-01-24T06:33:19.935Z,65.30
2023-01-24T06:36:01.329Z,65.30
2023-01-24T06:38:29.725Z,65.30
2023-01-24T06:40:59.430Z,65.30
2023-01-24T06:43:27.886Z,65.30
2023-01-24T06:45:57.780Z,65.30
2023-01-24T06:48:25.667Z,65.30
2023-01-24T06:50:53.660Z,65.30
2023-01-24T06:53:21.578Z,65.30
2023-01-24T06:55:49.455Z,65.30
2023-01-24T06:58:17.424Z,65.40
2023-01-24T07:00:45.299Z,65.30
2023-01-24T07:03:14.548Z,65.30
2023-01-24T07:05:42.472Z,65.40
2023-01-24T07:08:10.377Z,65.40
2023-01-24T07:10:39.951Z,65.40
2023-01-24T07:13:08.095Z,65.40
2023-01-24T07:15:36.022Z,65.50
2023-01-24T07:18:07.758Z,65.40
2023-01-24T07:20:37.323Z,66.30
2023-01-24T07:23:06.083Z,65.60
2023-01-24T07:25:35.958Z,65.60
2023-01-24T07:28:04.410Z,65.70
2023-01-24T07:30:32.284Z,65.70
2023-01-24T07:33:04.375Z,65.70
2023-01-24T07:35:42.892Z,65.70
2023-01-24T07:38:21.513Z,65.70
2023-01-24T07:40:49.887Z,65.70
2023-01-24T07:43:19.607Z,65.80
2023-01-24T07:45:47.604Z,65.70
2023-01-24T07:48:15.493Z,65.70
2023-01-24T07:50:44.672Z,65.80
2023-01-24T07:53:12.580Z,65.80
2023-01-24T07:55:42.288Z,65.80
2023-01-24T07:58:11.556Z,65.90
2023-01-24T08:00:39.494Z,66.00
2023-01-24T08:03:07.378Z,66.20
2023-01-24T08:05:35.194Z,66.40
2023-01-24T08:08:04.608Z,66.60
2023-01-24T08:10:32.565Z,67.10
2023-01-24T08:13:00.441Z,67.50
2023-01-24T08:15:30.530Z,67.40
2023-01-24T08:17:58.507Z,67.40
2023-01-24T08:20:26.425Z,67.40
2023-01-24T08:22:58.253Z,67.30
2023-01-24T08:25:29.145Z,67.30
2023-01-24T08:27:57.024Z,67.10
2023-01-24T08:30:25.749Z,67.20
2023-01-24T08:33:01.957Z,67.10
2023-01-24T08:35:32.276Z,67.10
2023-01-24T08:38:00.832Z,67.10
2023-01-24T08:40:37.875Z,67.10
2023-01-24T08:43:09.725Z,66.90
2023-01-24T08:45:38.004Z,66.90
2023-01-24T08:48:06.919Z,66.90
2023-01-24T08:50:35.158Z,67.00
2023-01-24T08:53:03.823Z,67.00
2023-01-24T08:55:33.032Z,66.90
2023-01-24T08:58:02.097Z,66.90
2023-01-24T09:00:30.047Z,66.90
2023-01-24T09:02:59.521Z,66.80
2023-01-24T09:05:27.615Z,66.90
2023-01-24T09:07:55.535Z,67.10
2023-01-24T09:10:23.659Z,67.60
2023-01-24T09:12:53.336Z,66.80
2023-01-24T09:15:21.624Z,66.70
2023-01-24T09:17:49.829Z,66.70
2023-01-24T09:20:19.335Z,66.70
2023-01-24T09:22:47.301Z,66.70
2023-01-24T09:25:15.425Z,66.70
2023-01-24T09:27:43.391Z,66.60
2023-01-24T09:30:13.827Z,66.70
2023-01-24T09:32:41.734Z,66.60
2023-01-24T09:35:09.918Z,66.60
2023-01-24T09:37:37.939Z,66.60
2023-01-24T09:40:07.210Z,66.70
2023-01-24T09:42:41.889Z,66.70
2023-01-24T09:45:22.181Z,66.60
2023-01-24T09:47:52.778Z,66.70
2023-01-24T09:50:23.490Z,66.60
2023-01-24T09:52:55.070Z,66.60
2023-01-24T09:55:26.940Z,66.60
2023-01-24T09:57:59.250Z,66.60
2023-01-24T10:00:31.515Z,66.50
2023-01-24T10:03:01.675Z,66.60
2023-01-24T10:05:35.992Z,66.40
2023-01-24T10:08:13.300Z,66.40
2023-01-24T10:10:47.762Z,66.40
2023-01-24T10:13:36.901Z,66.30
2023-01-24T10:16:17.949Z,66.30
2023-01-24T10:18:58.279Z,66.30
2023-01-24T10:21:47.906Z,66.20
2023-01-24T10:24:22.080Z,66.20
2023-01-24T10:26:51.729Z,66.20
2023-01-24T10:29:22.179Z,66.10
2023-01-24T10:32:00.670Z,66.10
2023-01-24T10:34:33.631Z,66.10
2023-01-24T10:37:06.482Z,66.00
2023-01-24T10:39:34.433Z,66.10
2023-01-24T10:42:04.554Z,66.10
2023-01-24T10:44:38.397Z,66.10
2023-01-24T10:47:38.936Z,65.90
2023-01-24T10:50:08.823Z,66.00
2023-01-24T10:52:36.759Z,65.90
2023-01-24T10:55:23.672Z,65.90
2023-01-24T10:57:54.511Z,65.90
2023-01-24T11:00:34.324Z,65.90
2023-01-24T11:03:05.178Z,66.00
2023-01-24T11:05:45.954Z,66.40
2023-01-24T11:08:20.512Z,66.40
2023-01-24T11:10:52.450Z,66.60
2023-01-24T11:13:36.340Z,66.60
2023-01-24T11:16:07.466Z,67.00
2023-01-24T11:18:38.058Z,67.20
2023-01-24T11:21:13.063Z,67.50
2023-01-24T11:23:42.123Z,67.60
2023-01-24T11:26:23.353Z,67.70
2023-01-24T11:28:59.983Z,67.70
2023-01-24T11:31:32.085Z,67.70
2023-01-24T11:34:45.068Z,67.60
2023-01-24T11:37:34.563Z,67.70
2023-01-24T11:40:16.212Z,68.00
2023-01-24T11:42:51.311Z,68.00
2023-01-24T11:45:30.936Z,67.80
2023-01-24T11:48:10.103Z,67.70
2023-01-24T11:50:48.313Z,67.40
2023-01-24T11:53:31.354Z,67.20
2023-01-24T11:56:07.820Z,66.90
2023-01-24T11:58:48.084Z,66.60
2023-01-24T12:01:23.628Z,66.40
2023-01-24T12:04:17.784Z,66.20
2023-01-24T12:06:53.525Z,66.10
2023-01-24T12:09:25.457Z,65.80
2023-01-24T12:12:04.344Z,65.70
2023-01-24T12:14:51.378Z,66.00
2023-01-24T12:17:39.854Z,66.60
2023-01-24T12:20:40.037Z,65.70
2023-01-24T12:23:21.730Z,65.60
2023-01-24T12:25:55.017Z,65.60
2023-01-24T12:28:30.441Z,65.70
2023-01-24T12:31:02.339Z,66.30
2023-01-24T12:33:35.540Z,66.40
2023-01-24T12:36:09.702Z,66.70
2023-01-24T12:38:41.071Z,67.00
2023-01-24T12:41:17.586Z,67.20
2023-01-24T12:43:59.345Z,67.40
2023-01-24T12:46:31.663Z,67.50
2023-01-24T12:49:15.363Z,67.60
2023-01-24T12:51:49.002Z,67.60
2023-01-24T12:54:21.782Z,67.60
2023-01-24T12:56:59.214Z,67.60
2023-01-24T12:59:29.171Z,67.70
2023-01-24T13:02:17.718Z,67.80
2023-01-24T13:04:56.423Z,67.80
2023-01-24T13:07:33.183Z,67.80
2023-01-24T13:10:11.841Z,67.80
2023-01-24T13:12:44.127Z,67.80
2023-01-24T13:15:19.102Z,67.90
2023-01-24T13:18:03.196Z,67.90
2023-01-24T13:20:50.044Z,67.90
2023-01-24T13:23:33.328Z,67.90
2023-01-24T13:26:29.965Z,67.90
2023-01-24T13:29:13.628Z,68.00
2023-01-24T13:31:54.138Z,68.00
2023-01-24T13:34:25.590Z,68.80
2023-01-24T13:36:54.061Z,68.00
2023-01-24T13:39:33.171Z,68.10
2023-01-24T13:42:08.016Z,68.10
2023-01-24T13:44:37.267Z,68.10
2023-01-24T13:47:23.880Z,68.80
2023-01-24T13:50:19.775Z,68.10
2023-01-24T13:52:50.151Z,68.10
2023-01-24T13:55:59.635Z,68.10
2023-01-24T13:58:29.555Z,68.10
2023-01-24T14:01:01.595Z,68.10
2023-01-24T14:03:33.172Z,68.90
2023-01-24T14:06:13.090Z,68.20
2023-01-24T14:08:51.724Z,68.30
2023-01-24T14:11:26.461Z,68.20
2023-01-24T14:14:03.347Z,68.30
2023-01-24T14:17:04.756Z,68.30
2023-01-24T14:19:37.395Z,68.40
2023-01-24T14:22:25.183Z,68.40
2023-01-24T14:24:59.118Z,68.40
2023-01-24T14:27:31.144Z,68.40
2023-01-24T14:30:11.510Z,68.40
2023-01-24T14:32:48.324Z,68.40
2023-01-24T14:35:22.416Z,68.50
2023-01-24T14:37:52.699Z,68.50
2023-01-24T14:40:24.170Z,68.50
2023-01-24T14:42:59.598Z,68.50
2023-01-24T14:45:30.118Z,68.50
2023-01-24T14:48:01.632Z,68.50
2023-01-24T14:50:34.079Z,68.50
2023-01-24T14:53:02.697Z,68.50
2023-01-24T14:55:42.142Z,68.50
2023-01-24T14:58:18.211Z,68.50
2023-01-24T15:00:46.477Z,68.50
2023-01-24T15:03:20.448Z,68.60
2023-01-24T15:05:57.940Z,68.60
2023-01-24T15:08:26.859Z,68.70
2023-01-24T15:11:07.256Z,68.70
2023-01-24T15:13:37.077Z,68.60
2023-01-24T15:16:06.812Z,68.50
2023-01-24T15:18:45.607Z,68.50
2023-01-24T15:21:36.778Z,68.50
2023-01-24T15:24:05.946Z,68.70
2023-01-24T15:26:40.937Z,68.70
2023-01-24T15:29:40.438Z,68.70
2023-01-24T15:32:42.397Z,68.60
2023-01-24T15:35:36.848Z,68.50
2023-01-24T15:38:23.455Z,69.30
2023-01-24T15:41:17.117Z,68.60
2023-01-24T15:43:50.587Z,68.60
2023-01-24T15:46:49.035Z,68.80
2023-01-24T15:49:36.664Z,68.80
2023-01-24T15:52:20.168Z,68.70
2023-01-24T15:54:53.272Z,68.40
2023-01-24T15:57:24.809Z,69.10
2023-01-24T15:59:55.935Z,68.30
2023-01-24T16:02:23.957Z,68.30
2023-01-24T16:04:52.095Z,68.20
2023-01-24T16:07:21.446Z,68.10
2023-01-24T16:09:50.299Z,68.10
2023-01-24T16:12:20.948Z,68.10
2023-01-24T16:15:07.117Z,68.10
2023-01-24T16:17:36.669Z,68.00
2023-01-24T16:20:08.765Z,68.10
2023-01-24T16:22:39.341Z,68.00
2023-01-24T16:25:12.098Z,68.70
2023-01-24T16:27:40.925Z,67.90
2023-01-24T16:30:15.584Z,67.90
2023-01-24T16:32:43.565Z,67.90
2023-01-24T16:35:12.733Z,67.80
2023-01-24T16:37:44.229Z,67.80
2023-01-24T16:40:13.821Z,67.80
2023-01-24T16:42:43.279Z,67.80
2023-01-24T16:45:14.752Z,67.80
2023-01-24T16:47:42.711Z,67.70
2023-01-24T16:50:12.317Z,67.70
2023-01-24T16:52:41.696Z,67.70
2023-01-24T16:55:10.564Z,67.70
2023-01-24T16:57:38.621Z,68.40
2023-01-24T17:00:12.674Z,67.60
2023-01-24T17:02:40.672Z,67.60
2023-01-24T17:05:09.013Z,67.60
2023-01-24T17:07:37.393Z,67.60
2023-01-24T17:10:07.603Z,67.50
2023-01-24T17:12:35.556Z,67.40
2023-01-24T17:15:03.525Z,67.50
2023-01-24T17:17:31.402Z,67.50
2023-01-24T17:19:59.261Z,67.50
2023-01-24T17:22:28.615Z,67.50
2023-01-24T17:24:56.524Z,67.40
2023-01-24T17:27:25.812Z,67.40
2023-01-24T17:29:53.695Z,67.30
2023-01-24T17:32:21.608Z,67.30
2023-01-24T17:34:49.507Z,67.30
2023-01-24T17:37:17.391Z,67.30
2023-01-24T17:39:45.247Z,67.30
2023-01-24T17:42:13.114Z,67.30
2023-01-24T17:44:42.333Z,67.30
2023-01-24T17:47:10.321Z,67.30
2023-01-24T17:49:39.172Z,67.20
2023-01-24T17:52:07.013Z,67.30
2023-01-24T17:54:34.895Z,67.30
2023-01-24T17:57:02.796Z,67.20
2023-01-24T17:59:30.679Z,67.30
2023-01-24T18:02:00.094Z,67.30
2023-01-24T18:04:28.259Z,67.20
2023-01-24T18:06:56.099Z,67.30
2023-01-24T18:09:26.779Z,67.30
2023-01-24T18:11:54.746Z,67.30
2023-01-24T18:14:22.803Z,67.20
2023-01-24T18:16:52.392Z,67.30
2023-01-24T18:19:21.591Z,67.90
2023-01-24T18:21:49.490Z,67.10
2023-01-24T18:24:17.361Z,67.20
2023-01-24T18:26:45.291Z,67.90
2023-01-24T18:29:13.119Z,67.20
2023-01-24T18:31:41.117Z,67.10
2023-01-24T18:34:12.112Z,67.10
2023-01-24T18:36:41.303Z,67.10
2023-01-24T18:39:09.224Z,67.10
2023-01-24T18:41:37.066Z,67.00
2023-01-24T18:44:07.084Z,67.10
2023-01-24T18:46:35.419Z,67.10
2023-01-24T18:49:05.470Z,67.10
2023-01-24T18:51:33.391Z,67.10
2023-01-24T18:54:03.831Z,67.00
2023-01-24T18:56:31.781Z,67.00
2023-01-24T18:58:59.644Z,67.00
2023-01-24T19:01:28.182Z,67.00
2023-01-24T19:03:56.072Z,67.00
2023-01-24T19:06:27.974Z,67.00
2023-01-24T19:09:03.218Z,67.00
2023-01-24T19:11:34.992Z,67.00
2023-01-24T19:14:03.947Z,66.90
2023-01-24T19:16:34.621Z,66.80
2023-01-24T19:19:02.744Z,66.90
2023-01-24T19:21:31.915Z,66.90
2023-01-24T19:24:00.930Z,66.90
2023-01-24T19:26:29.230Z,67.00
2023-01-24T19:28:59.640Z,66.90
2023-01-24T19:31:32.363Z,67.10
2023-01-24T19:34:00.627Z,67.00
2023-01-24T19:36:28.733Z,66.90
2023-01-24T19:38:58.794Z,67.00
2023-01-24T19:41:28.187Z,67.00
2023-01-24T19:46:49.103Z,67.00
2023-01-24T19:49:17.356Z,67.70
2023-01-24T19:51:45.319Z,67.00
2023-01-24T19:54:13.499Z,67.00
2023-01-24T19:56:41.489Z,67.00
2023-01-24T19:59:09.536Z,66.90
2023-01-24T20:01:37.568Z,66.90
2023-01-24T20:04:22.641Z,66.90
2023-01-24T20:06:52.315Z,66.90
2023-01-24T20:09:20.249Z,66.90
2023-01-24T20:11:48.081Z,66.90
2023-01-24T20:14:15.916Z,66.90
2023-01-24T20:16:44.895Z,66.90
2023-01-24T20:19:27.317Z,67.00
2023-01-24T20:21:56.402Z,66.90
2023-01-24T20:24:24.380Z,66.80
2023-01-24T20:26:52.578Z,66.80
2023-01-24T20:29:20.581Z,66.90
2023-01-24T20:31:48.852Z,66.80
2023-01-24T20:34:19.289Z,66.90
2023-01-24T20:36:48.216Z,66.80
2023-01-24T20:39:16.602Z,66.80
2023-01-24T20:41:46.224Z,66.70
2023-01-24T20:44:25.862Z,66.70
2023-01-24T20:46:54.904Z,66.70
2023-01-24T20:49:24.723Z,66.70
2023-01-24T20:51:52.626Z,66.80
2023-01-24T20:54:21.798Z,66.80
2023-01-24T20:56:54.435Z,66.90
2023-01-24T20:59:23.105Z,66.80
2023-01-24T21:01:51.353Z,66.80
2023-01-24T21:04:19.624Z,66.80
2023-01-24T21:06:49.335Z,66.80
2023-01-24T21:09:17.906Z,66.80
2023-01-24T21:11:47.513Z,66.80
2023-01-24T21:14:16.607Z,66.80
2023-01-24T21:16:45.169Z,66.70
2023-01-24T21:19:18.291Z,66.70
2023-01-24T21:21:48.766Z,66.70
2023-01-24T21:24:34.323Z,66.70
2023-01-24T21:27:02.703Z,66.70
2023-01-24T21:29:30.598Z,66.60
2023-01-24T21:31:58.604Z,66.50
2023-01-24T21:34:26.690Z,66.60
2023-01-24T21:36:55.937Z,66.60
2023-01-24T21:39:25.067Z,66.60
2023-01-24T21:41:56.377Z,66.60
2023-01-24T21:44:25.251Z,66.60
2023-01-24T21:46:53.563Z,66.60
2023-01-24T21:49:21.671Z,66.60
2023-01-24T21:51:52.315Z,66.60
2023-01-24T21:54:22.943Z,66.60
2023-01-24T21:57:24.064Z,66.60
2023-01-24T21:59:56.420Z,66.60
2023-01-24T22:02:26.397Z,66.70
2023-01-24T22:04:54.382Z,66.80
2023-01-24T22:07:23.939Z,66.80
2023-01-24T22:09:54.982Z,66.90
2023-01-24T22:12:23.174Z,67.00
2023-01-24T22:14:52.183Z,67.00
2023-01-24T22:17:22.809Z,66.90
2023-01-24T22:19:52.651Z,67.00
2023-01-24T22:22:33.278Z,66.90
2023-01-24T22:25:17.499Z,66.90
2023-01-24T22:27:45.952Z,66.90
2023-01-24T22:30:18.629Z,66.80
2023-01-24T22:32:47.676Z,66.80
2023-01-24T22:35:16.795Z,66.80
2023-01-24T22:37:46.637Z,66.80
2023-01-24T22:40:18.852Z,66.80
2023-01-24T22:42:46.873Z,66.80
2023-01-24T22:45:14.863Z,66.70
2023-01-24T22:47:42.698Z,66.70
2023-01-24T22:50:11.705Z,66.70
2023-01-24T22:52:39.945Z,66.70
2023-01-24T22:55:09.008Z,66.70
2023-01-24T22:57:38.520Z,66.60
2023-01-24T23:00:08.999Z,66.60
2023-01-24T23:02:36.878Z,66.60
2023-01-24T23:05:08.423Z,66.60
2023-01-24T23:07:36.498Z,66.60
2023-01-24T23:10:04.869Z,66.60
2023-01-24T23:12:50.197Z,66.60
2023-01-24T23:15:37.315Z,66.60
2023-01-24T23:18:09.585Z,66.60
2023-01-24T23:20:54.830Z,66.50
2023-01-24T23:23:22.828Z,66.40
2023-01-24T23:25:50.777Z,66.50
2023-01-24T23:28:18.620Z,66.40
2023-01-24T23:30:55.140Z,66.30
2023-01-24T23:33:30.784Z,66.40
2023-01-24T23:35:59.337Z,66.40
2023-01-24T23:38:27.220Z,66.40
2023-01-24T23:40:55.091Z,66.30
2023-01-24T23:43:22.974Z,66.30
2023-01-24T23:45:52.239Z,66.40
2023-01-24T23:48:22.704Z,66.30
2023-01-24T23:50:55.918Z,66.30
2023-01-24T23:53:23.894Z,66.30
2023-01-24T23:55:51.922Z,66.30
2023-01-24T23:58:19.784Z,66.30
